KNQA/NQA METAR and TAF weather

Enter ICAO airport designator
Station Type Date Time Source
KNQA METAR 2021/03/05 13:50 UTC NOAA

KNQA 051350Z 05009KT 10SM CLR 09/M00 A3017


Station Type Date Time Source
KNQA Decoded METAR 2021/03/05 13:50 UTC NOAA

Millington, Millington Municipal Airport, TN, United States (KNQA) 35-21-24N 089-52-13W
Mar 05, 2021 - 08:50 AM EST / 2021.03.05 1350 UTC
Wind: from the NE (050 degrees) at 10 MPH (9 KT):0
Visibility: 10 mile(s):0
Sky conditions: clear
Temperature: 48 F (9 C)
Dew Point: 32 F (0 C)
Relative Humidity: 53%
Pressure (altimeter): 30.17 in. Hg (1021 hPa)
ob: KNQA 051350Z 05009KT 10SM CLR 09/M00 A3017
cycle: 14

Station Type Date Time Source
KNQA TAF UTC NOAA

Error!

Example: see airport list